sensor_id;sensor_type;location;lat;lon;timestamp;P1;durP1;ratioP1;P2;durP2;ratioP2
56013;SDS011;41893;55.868;37.632;2022-09-13T00:01:28;12.23;;;9.32;;
56013;SDS011;41893;55.868;37.632;2022-09-13T00:03:54;10.00;;;9.10;;
56013;SDS011;41893;55.868;37.632;2022-09-13T00:06:19;12.65;;;9.73;;
56013;SDS011;41893;55.868;37.632;2022-09-13T00:08:46;17.40;;;9.77;;
56013;SDS011;41893;55.868;37.632;2022-09-13T00:11:17;11.80;;;10.55;;
56013;SDS011;41893;55.868;37.632;2022-09-13T00:13:44;10.23;;;8.93;;
56013;SDS011;41893;55.868;37.632;2022-09-13T00:16:11;15.10;;;9.43;;
56013;SDS011;41893;55.868;37.632;2022-09-13T00:18:38;11.23;;;9.13;;
56013;SDS011;41893;55.868;37.632;2022-09-13T00:21:06;9.45;;;8.65;;
56013;SDS011;41893;55.868;37.632;2022-09-13T00:23:34;11.20;;;10.15;;
56013;SDS011;41893;55.868;37.632;2022-09-13T00:26:02;12.98;;;9.15;;
56013;SDS011;41893;55.868;37.632;2022-09-13T00:28:32;16.42;;;10.05;;
56013;SDS011;41893;55.868;37.632;2022-09-13T00:30:59;17.13;;;10.13;;
56013;SDS011;41893;55.868;37.632;2022-09-13T00:33:26;9.93;;;8.65;;
56013;SDS011;41893;55.868;37.632;2022-09-13T00:35:52;10.00;;;9.00;;
56013;SDS011;41893;55.868;37.632;2022-09-13T00:38:17;18.83;;;9.93;;
56013;SDS011;41893;55.868;37.632;2022-09-13T00:40:43;16.75;;;9.48;;
56013;SDS011;41893;55.868;37.632;2022-09-13T00:43:11;14.95;;;8.80;;
56013;SDS011;41893;55.868;37.632;2022-09-13T00:45:43;12.60;;;9.88;;
56013;SDS011;41893;55.868;37.632;2022-09-13T00:48:12;11.07;;;8.90;;
56013;SDS011;41893;55.868;37.632;2022-09-13T00:50:46;9.95;;;9.00;;
56013;SDS011;41893;55.868;37.632;2022-09-13T00:53:21;12.75;;;8.90;;
56013;SDS011;41893;55.868;37.632;2022-09-13T00:55:59;13.52;;;8.85;;
56013;SDS011;41893;55.868;37.632;2022-09-13T00:58:52;18.38;;;9.75;;
56013;SDS011;41893;55.868;37.632;2022-09-13T01:01:25;25.20;;;8.70;;
56013;SDS011;41893;55.868;37.632;2022-09-13T01:04:02;22.35;;;9.82;;
56013;SDS011;41893;55.868;37.632;2022-09-13T01:06:28;12.95;;;9.50;;
56013;SDS011;41893;55.868;37.632;2022-09-13T01:08:57;10.73;;;7.97;;
56013;SDS011;41893;55.868;37.632;2022-09-13T01:11:30;12.65;;;8.70;;
56013;SDS011;41893;55.868;37.632;2022-09-13T01:13:57;15.35;;;9.57;;
56013;SDS011;41893;55.868;37.632;2022-09-13T01:16:23;11.40;;;8.13;;
56013;SDS011;41893;55.868;37.632;2022-09-13T01:18:50;11.68;;;8.52;;
56013;SDS011;41893;55.868;37.632;2022-09-13T01:24:21;11.13;;;8.77;;
56013;SDS011;41893;55.868;37.632;2022-09-13T01:35:22;10.52;;;9.57;;
56013;SDS011;41893;55.868;37.632;2022-09-13T01:40:44;11.77;;;8.85;;
56013;SDS011;41893;55.868;37.632;2022-09-13T01:43:27;11.80;;;8.73;;
56013;SDS011;41893;55.868;37.632;2022-09-13T01:51:27;8.13;;;7.57;;
56013;SDS011;41893;55.868;37.632;2022-09-13T01:56:40;10.10;;;7.88;;
56013;SDS011;41893;55.868;37.632;2022-09-13T01:59:13;13.68;;;8.27;;
56013;SDS011;41893;55.868;37.632;2022-09-13T02:04:35;8.52;;;7.97;;
56013;SDS011;41893;55.868;37.632;2022-09-13T02:09:39;10.07;;;8.40;;
56013;SDS011;41893;55.868;37.632;2022-09-13T02:12:30;10.18;;;8.32;;
56013;SDS011;41893;55.868;37.632;2022-09-13T02:14:58;11.95;;;8.30;;
56013;SDS011;41893;55.868;37.632;2022-09-13T02:17:36;9.63;;;8.68;;
56013;SDS011;41893;55.868;37.632;2022-09-13T02:20:14;14.02;;;8.23;;
56013;SDS011;41893;55.868;37.632;2022-09-13T02:22:47;18.00;;;9.52;;
56013;SDS011;41893;55.868;37.632;2022-09-13T02:25:19;12.68;;;8.52;;
56013;SDS011;41893;55.868;37.632;2022-09-13T02:27:48;11.15;;;8.95;;
56013;SDS011;41893;55.868;37.632;2022-09-13T02:30:18;9.23;;;8.15;;
56013;SDS011;41893;55.868;37.632;2022-09-13T02:32:46;9.77;;;7.90;;
56013;SDS011;41893;55.868;37.632;2022-09-13T02:35:19;11.40;;;9.00;;
56013;SDS011;41893;55.868;37.632;2022-09-13T02:38:02;12.05;;;8.20;;
56013;SDS011;41893;55.868;37.632;2022-09-13T02:40:33;12.75;;;8.18;;
56013;SDS011;41893;55.868;37.632;2022-09-13T02:43:06;13.45;;;8.80;;
56013;SDS011;41893;55.868;37.632;2022-09-13T02:45:40;13.07;;;7.90;;
56013;SDS011;41893;55.868;37.632;2022-09-13T02:48:18;11.82;;;9.23;;
56013;SDS011;41893;55.868;37.632;2022-09-13T02:51:06;16.10;;;8.80;;
56013;SDS011;41893;55.868;37.632;2022-09-13T02:53:49;111.95;;;10.57;;
56013;SDS011;41893;55.868;37.632;2022-09-13T02:56:23;13.48;;;8.75;;
56013;SDS011;41893;55.868;37.632;2022-09-13T02:59:04;12.95;;;8.27;;
56013;SDS011;41893;55.868;37.632;2022-09-13T03:01:38;11.88;;;9.13;;
56013;SDS011;41893;55.868;37.632;2022-09-13T03:04:09;30.47;;;8.57;;
56013;SDS011;41893;55.868;37.632;2022-09-13T03:06:36;9.95;;;8.57;;
56013;SDS011;41893;55.868;37.632;2022-09-13T03:09:04;9.05;;;8.45;;
56013;SDS011;41893;55.868;37.632;2022-09-13T03:14:25;12.10;;;8.57;;
56013;SDS011;41893;55.868;37.632;2022-09-13T03:30:48;9.30;;;8.43;;
56013;SDS011;41893;55.868;37.632;2022-09-13T03:36:10;14.95;;;10.70;;
56013;SDS011;41893;55.868;37.632;2022-09-13T03:39:19;10.48;;;9.50;;
56013;SDS011;41893;55.868;37.632;2022-09-13T03:41:46;15.63;;;10.05;;
56013;SDS011;41893;55.868;37.632;2022-09-13T03:44:15;13.98;;;9.60;;
56013;SDS011;41893;55.868;37.632;2022-09-13T03:46:46;11.45;;;8.75;;
56013;SDS011;41893;55.868;37.632;2022-09-13T03:49:16;12.40;;;11.00;;
56013;SDS011;41893;55.868;37.632;2022-09-13T03:51:45;16.85;;;9.07;;
56013;SDS011;41893;55.868;37.632;2022-09-13T03:54:17;28.42;;;9.25;;
56013;SDS011;41893;55.868;37.632;2022-09-13T03:59:30;11.60;;;9.00;;
56013;SDS011;41893;55.868;37.632;2022-09-13T04:01:56;9.02;;;8.18;;
56013;SDS011;41893;55.868;37.632;2022-09-13T04:04:21;10.60;;;9.00;;
56013;SDS011;41893;55.868;37.632;2022-09-13T04:06:47;21.38;;;10.70;;
56013;SDS011;41893;55.868;37.632;2022-09-13T04:09:13;11.73;;;9.63;;
56013;SDS011;41893;55.868;37.632;2022-09-13T04:11:38;9.88;;;8.98;;
56013;SDS011;41893;55.868;37.632;2022-09-13T04:14:05;23.42;;;10.23;;
56013;SDS011;41893;55.868;37.632;2022-09-13T04:16:31;25.80;;;11.00;;
56013;SDS011;41893;55.868;37.632;2022-09-13T04:18:56;17.42;;;10.32;;
56013;SDS011;41893;55.868;37.632;2022-09-13T04:21:22;16.35;;;9.13;;
56013;SDS011;41893;55.868;37.632;2022-09-13T04:23:48;13.15;;;9.18;;
56013;SDS011;41893;55.868;37.632;2022-09-13T04:26:14;11.32;;;9.45;;
56013;SDS011;41893;55.868;37.632;2022-09-13T04:28:40;13.75;;;9.98;;
56013;SDS011;41893;55.868;37.632;2022-09-13T04:31:05;20.05;;;11.27;;
56013;SDS011;41893;55.868;37.632;2022-09-13T04:33:31;11.43;;;9.23;;
56013;SDS011;41893;55.868;37.632;2022-09-13T04:35:57;24.83;;;9.63;;
56013;SDS011;41893;55.868;37.632;2022-09-13T04:38:24;18.70;;;10.23;;
56013;SDS011;41893;55.868;37.632;2022-09-13T04:40:54;14.30;;;9.07;;
56013;SDS011;41893;55.868;37.632;2022-09-13T04:43:20;24.02;;;11.05;;
56013;SDS011;41893;55.868;37.632;2022-09-13T04:45:47;21.25;;;10.60;;
56013;SDS011;41893;55.868;37.632;2022-09-13T04:48:13;15.20;;;10.43;;
56013;SDS011;41893;55.868;37.632;2022-09-13T04:50:39;13.57;;;9.85;;
56013;SDS011;41893;55.868;37.632;2022-09-13T04:53:05;11.52;;;10.45;;
56013;SDS011;41893;55.868;37.632;2022-09-13T04:55:31;26.75;;;10.18;;
56013;SDS011;41893;55.868;37.632;2022-09-13T04:57:56;11.50;;;10.30;;
56013;SDS011;41893;55.868;37.632;2022-09-13T05:00:22;13.13;;;10.23;;
56013;SDS011;41893;55.868;37.632;2022-09-13T05:02:53;24.98;;;11.88;;
56013;SDS011;41893;55.868;37.632;2022-09-13T05:05:20;16.55;;;10.98;;
56013;SDS011;41893;55.868;37.632;2022-09-13T05:07:49;21.13;;;11.70;;
56013;SDS011;41893;55.868;37.632;2022-09-13T05:10:16;14.98;;;10.45;;
56013;SDS011;41893;55.868;37.632;2022-09-13T05:12:42;27.08;;;12.38;;
56013;SDS011;41893;55.868;37.632;2022-09-13T05:15:08;28.38;;;15.40;;
56013;SDS011;41893;55.868;37.632;2022-09-13T05:17:35;18.25;;;11.57;;
56013;SDS011;41893;55.868;37.632;2022-09-13T05:20:00;20.50;;;11.45;;
56013;SDS011;41893;55.868;37.632;2022-09-13T05:22:28;25.08;;;11.45;;
56013;SDS011;41893;55.868;37.632;2022-09-13T05:24:53;22.88;;;16.65;;
56013;SDS011;41893;55.868;37.632;2022-09-13T05:27:19;22.13;;;10.88;;
56013;SDS011;41893;55.868;37.632;2022-09-13T05:29:45;21.63;;;10.10;;
56013;SDS011;41893;55.868;37.632;2022-09-13T05:32:10;46.13;;;11.05;;
56013;SDS011;41893;55.868;37.632;2022-09-13T05:34:36;27.42;;;10.13;;
56013;SDS011;41893;55.868;37.632;2022-09-13T05:37:02;19.65;;;10.25;;
56013;SDS011;41893;55.868;37.632;2022-09-13T05:39:28;15.57;;;10.43;;
56013;SDS011;41893;55.868;37.632;2022-09-13T05:41:53;14.45;;;10.35;;
56013;SDS011;41893;55.868;37.632;2022-09-13T05:44:19;19.52;;;11.43;;
56013;SDS011;41893;55.868;37.632;2022-09-13T05:46:45;12.70;;;10.70;;
56013;SDS011;41893;55.868;37.632;2022-09-13T05:49:12;18.15;;;10.73;;
56013;SDS011;41893;55.868;37.632;2022-09-13T05:51:38;21.60;;;10.68;;
56013;SDS011;41893;55.868;37.632;2022-09-13T05:54:04;14.77;;;11.30;;
56013;SDS011;41893;55.868;37.632;2022-09-13T05:56:30;22.63;;;11.82;;
56013;SDS011;41893;55.868;37.632;2022-09-13T05:58:56;9.98;;;9.40;;
56013;SDS011;41893;55.868;37.632;2022-09-13T06:01:23;22.23;;;10.43;;
56013;SDS011;41893;55.868;37.632;2022-09-13T06:03:51;15.98;;;10.63;;
56013;SDS011;41893;55.868;37.632;2022-09-13T06:06:19;16.17;;;11.25;;
56013;SDS011;41893;55.868;37.632;2022-09-13T06:08:46;18.67;;;11.27;;
56013;SDS011;41893;55.868;37.632;2022-09-13T06:11:13;11.50;;;10.38;;
56013;SDS011;41893;55.868;37.632;2022-09-13T06:13:40;34.85;;;12.23;;
56013;SDS011;41893;55.868;37.632;2022-09-13T06:16:10;12.57;;;10.80;;
56013;SDS011;41893;55.868;37.632;2022-09-13T06:18:37;20.42;;;10.73;;
56013;SDS011;41893;55.868;37.632;2022-09-13T06:21:08;30.73;;;12.38;;
56013;SDS011;41893;55.868;37.632;2022-09-13T06:23:35;25.30;;;10.30;;
56013;SDS011;41893;55.868;37.632;2022-09-13T06:26:08;17.50;;;10.23;;
56013;SDS011;41893;55.868;37.632;2022-09-13T06:28:36;18.05;;;10.50;;
56013;SDS011;41893;55.868;37.632;2022-09-13T06:31:03;15.73;;;10.63;;
56013;SDS011;41893;55.868;37.632;2022-09-13T06:33:31;25.27;;;11.55;;
56013;SDS011;41893;55.868;37.632;2022-09-13T06:36:01;11.30;;;9.30;;
56013;SDS011;41893;55.868;37.632;2022-09-13T06:38:29;10.65;;;9.20;;
56013;SDS011;41893;55.868;37.632;2022-09-13T06:41:02;17.65;;;9.45;;
56013;SDS011;41893;55.868;37.632;2022-09-13T06:43:39;18.98;;;8.63;;
56013;SDS011;41893;55.868;37.632;2022-09-13T06:46:07;13.13;;;9.13;;
56013;SDS011;41893;55.868;37.632;2022-09-13T06:48:43;22.05;;;9.90;;
56013;SDS011;41893;55.868;37.632;2022-09-13T06:51:10;10.80;;;9.68;;
56013;SDS011;41893;55.868;37.632;2022-09-13T06:53:38;29.08;;;10.52;;
56013;SDS011;41893;55.868;37.632;2022-09-13T06:56:06;15.50;;;10.00;;
56013;SDS011;41893;55.868;37.632;2022-09-13T06:58:37;23.30;;;9.18;;
56013;SDS011;41893;55.868;37.632;2022-09-13T07:01:14;13.43;;;9.13;;
56013;SDS011;41893;55.868;37.632;2022-09-13T07:03:42;14.07;;;9.27;;
56013;SDS011;41893;55.868;37.632;2022-09-13T07:06:11;9.15;;;8.43;;
56013;SDS011;41893;55.868;37.632;2022-09-13T07:08:41;17.67;;;8.57;;
56013;SDS011;41893;55.868;37.632;2022-09-13T07:11:08;19.35;;;9.35;;
56013;SDS011;41893;55.868;37.632;2022-09-13T07:13:35;11.95;;;8.73;;
56013;SDS011;41893;55.868;37.632;2022-09-13T07:16:06;19.00;;;10.23;;
56013;SDS011;41893;55.868;37.632;2022-09-13T07:18:33;19.83;;;9.57;;
56013;SDS011;41893;55.868;37.632;2022-09-13T07:21:03;20.52;;;8.77;;
56013;SDS011;41893;55.868;37.632;2022-09-13T07:23:31;20.83;;;9.73;;
56013;SDS011;41893;55.868;37.632;2022-09-13T07:25:58;11.65;;;9.20;;
56013;SDS011;41893;55.868;37.632;2022-09-13T07:28:29;22.73;;;9.00;;
56013;SDS011;41893;55.868;37.632;2022-09-13T07:31:04;15.13;;;8.55;;
56013;SDS011;41893;55.868;37.632;2022-09-13T07:33:32;12.70;;;9.73;;
56013;SDS011;41893;55.868;37.632;2022-09-13T07:35:58;14.15;;;9.38;;
56013;SDS011;41893;55.868;37.632;2022-09-13T07:38:25;23.55;;;7.80;;
56013;SDS011;41893;55.868;37.632;2022-09-13T07:40:52;21.55;;;7.70;;
56013;SDS011;41893;55.868;37.632;2022-09-13T07:43:20;50.22;;;11.07;;
56013;SDS011;41893;55.868;37.632;2022-09-13T07:45:46;32.13;;;8.57;;
56013;SDS011;41893;55.868;37.632;2022-09-13T07:48:12;19.67;;;7.03;;
56013;SDS011;41893;55.868;37.632;2022-09-13T07:50:37;14.07;;;6.72;;
56013;SDS011;41893;55.868;37.632;2022-09-13T07:53:03;6.75;;;6.35;;
56013;SDS011;41893;55.868;37.632;2022-09-13T07:55:29;14.60;;;7.40;;
56013;SDS011;41893;55.868;37.632;2022-09-13T07:58:14;12.35;;;7.18;;
56013;SDS011;41893;55.868;37.632;2022-09-13T08:00:39;15.35;;;6.18;;
56013;SDS011;41893;55.868;37.632;2022-09-13T08:03:06;7.55;;;6.75;;
56013;SDS011;41893;55.868;37.632;2022-09-13T08:05:37;7.90;;;7.22;;
56013;SDS011;41893;55.868;37.632;2022-09-13T08:08:04;7.55;;;6.95;;
56013;SDS011;41893;55.868;37.632;2022-09-13T08:10:32;35.05;;;9.82;;
56013;SDS011;41893;55.868;37.632;2022-09-13T08:12:58;17.92;;;8.00;;
56013;SDS011;41893;55.868;37.632;2022-09-13T08:15:24;10.70;;;4.63;;
56013;SDS011;41893;55.868;37.632;2022-09-13T08:17:50;8.23;;;4.28;;
56013;SDS011;41893;55.868;37.632;2022-09-13T08:20:18;11.90;;;5.68;;
56013;SDS011;41893;55.868;37.632;2022-09-13T08:22:45;6.32;;;5.20;;
56013;SDS011;41893;55.868;37.632;2022-09-13T08:25:10;8.27;;;4.63;;
56013;SDS011;41893;55.868;37.632;2022-09-13T08:27:36;3.90;;;3.70;;
56013;SDS011;41893;55.868;37.632;2022-09-13T08:30:02;8.13;;;4.53;;
56013;SDS011;41893;55.868;37.632;2022-09-13T08:32:29;12.05;;;5.07;;
56013;SDS011;41893;55.868;37.632;2022-09-13T08:34:55;4.57;;;3.63;;
56013;SDS011;41893;55.868;37.632;2022-09-13T08:37:22;8.38;;;4.20;;
56013;SDS011;41893;55.868;37.632;2022-09-13T08:39:48;15.88;;;4.70;;
56013;SDS011;41893;55.868;37.632;2022-09-13T08:42:32;9.35;;;4.88;;
56013;SDS011;41893;55.868;37.632;2022-09-13T08:45:03;15.95;;;5.43;;
56013;SDS011;41893;55.868;37.632;2022-09-13T08:47:46;14.70;;;5.38;;
56013;SDS011;41893;55.868;37.632;2022-09-13T08:50:20;23.95;;;6.18;;
56013;SDS011;41893;55.868;37.632;2022-09-13T08:52:55;25.92;;;7.85;;
56013;SDS011;41893;55.868;37.632;2022-09-13T09:01:22;20.33;;;5.50;;
56013;SDS011;41893;55.868;37.632;2022-09-13T09:04:04;22.90;;;5.75;;
56013;SDS011;41893;55.868;37.632;2022-09-13T09:06:32;11.00;;;5.17;;
56013;SDS011;41893;55.868;37.632;2022-09-13T09:17:04;11.23;;;4.80;;
56013;SDS011;41893;55.868;37.632;2022-09-13T09:19:38;14.10;;;4.28;;
56013;SDS011;41893;55.868;37.632;2022-09-13T09:22:15;35.75;;;4.28;;
56013;SDS011;41893;55.868;37.632;2022-09-13T09:24:44;23.70;;;4.07;;
56013;SDS011;41893;55.868;37.632;2022-09-13T09:27:14;9.38;;;4.47;;
56013;SDS011;41893;55.868;37.632;2022-09-13T09:29:41;9.20;;;3.80;;
56013;SDS011;41893;55.868;37.632;2022-09-13T09:32:18;8.00;;;3.78;;
56013;SDS011;41893;55.868;37.632;2022-09-13T09:37:40;9.95;;;3.80;;
56013;SDS011;41893;55.868;37.632;2022-09-13T09:40:10;8.95;;;3.90;;
56013;SDS011;41893;55.868;37.632;2022-09-13T09:42:42;7.55;;;3.85;;
56013;SDS011;41893;55.868;37.632;2022-09-13T09:47:58;15.73;;;3.67;;
56013;SDS011;41893;55.868;37.632;2022-09-13T09:50:29;6.53;;;2.70;;
56013;SDS011;41893;55.868;37.632;2022-09-13T09:58:14;18.63;;;4.35;;
56013;SDS011;41893;55.868;37.632;2022-09-13T10:03:24;8.68;;;2.75;;
56013;SDS011;41893;55.868;37.632;2022-09-13T10:08:31;30.55;;;4.85;;
56013;SDS011;41893;55.868;37.632;2022-09-13T10:10:58;10.40;;;4.75;;
56013;SDS011;41893;55.868;37.632;2022-09-13T10:13:26;10.63;;;3.75;;
56013;SDS011;41893;55.868;37.632;2022-09-13T10:15:54;12.23;;;3.40;;
56013;SDS011;41893;55.868;37.632;2022-09-13T10:18:25;13.73;;;2.85;;
56013;SDS011;41893;55.868;37.632;2022-09-13T10:20:59;18.10;;;2.90;;
56013;SDS011;41893;55.868;37.632;2022-09-13T10:23:32;3.17;;;2.80;;
56013;SDS011;41893;55.868;37.632;2022-09-13T10:28:26;13.25;;;2.63;;
56013;SDS011;41893;55.868;37.632;2022-09-13T10:30:58;10.93;;;3.13;;
56013;SDS011;41893;55.868;37.632;2022-09-13T10:33:30;3.20;;;2.90;;
56013;SDS011;41893;55.868;37.632;2022-09-13T10:35:59;9.15;;;3.33;;
56013;SDS011;41893;55.868;37.632;2022-09-13T10:41:01;18.30;;;3.78;;
56013;SDS011;41893;55.868;37.632;2022-09-13T10:43:30;4.25;;;3.30;;
56013;SDS011;41893;55.868;37.632;2022-09-13T10:45:57;18.40;;;5.95;;
56013;SDS011;41893;55.868;37.632;2022-09-13T10:48:27;15.77;;;3.25;;
56013;SDS011;41893;55.868;37.632;2022-09-13T10:51:02;9.93;;;3.78;;
56013;SDS011;41893;55.868;37.632;2022-09-13T10:53:47;13.27;;;3.83;;
56013;SDS011;41893;55.868;37.632;2022-09-13T10:56:20;6.65;;;3.38;;
56013;SDS011;41893;55.868;37.632;2022-09-13T10:58:47;15.88;;;3.05;;
56013;SDS011;41893;55.868;37.632;2022-09-13T11:09:35;11.40;;;3.70;;
56013;SDS011;41893;55.868;37.632;2022-09-13T11:12:24;5.13;;;2.70;;
56013;SDS011;41893;55.868;37.632;2022-09-13T11:20:23;17.25;;;3.15;;
56013;SDS011;41893;55.868;37.632;2022-09-13T11:39:40;10.77;;;2.45;;
56013;SDS011;41893;55.868;37.632;2022-09-13T11:42:33;25.42;;;3.40;;
56013;SDS011;41893;55.868;37.632;2022-09-13T11:56:38;9.95;;;2.88;;
56013;SDS011;41893;55.868;37.632;2022-09-13T12:01:44;6.05;;;2.80;;
56013;SDS011;41893;55.868;37.632;2022-09-13T12:07:11;3.70;;;3.00;;
56013;SDS011;41893;55.868;37.632;2022-09-13T12:09:59;6.15;;;3.30;;
56013;SDS011;41893;55.868;37.632;2022-09-13T12:12:31;5.80;;;3.10;;
56013;SDS011;41893;55.868;37.632;2022-09-13T12:15:02;10.32;;;3.17;;
56013;SDS011;41893;55.868;37.632;2022-09-13T12:18:06;5.25;;;2.60;;
56013;SDS011;41893;55.868;37.632;2022-09-13T12:20:49;3.47;;;2.83;;
56013;SDS011;41893;55.868;37.632;2022-09-13T12:31:36;13.23;;;2.88;;
56013;SDS011;41893;55.868;37.632;2022-09-13T12:34:04;11.90;;;2.78;;
56013;SDS011;41893;55.868;37.632;2022-09-13T12:39:11;13.02;;;2.00;;
56013;SDS011;41893;55.868;37.632;2022-09-13T13:01:25;12.55;;;2.35;;
56013;SDS011;41893;55.868;37.632;2022-09-13T13:04:13;7.97;;;2.50;;
56013;SDS011;41893;55.868;37.632;2022-09-13T13:12:11;8.68;;;2.70;;
56013;SDS011;41893;55.868;37.632;2022-09-13T13:14:51;7.03;;;2.92;;
56013;SDS011;41893;55.868;37.632;2022-09-13T13:23:24;7.90;;;2.70;;
56013;SDS011;41893;55.868;37.632;2022-09-13T13:41:52;4.72;;;2.42;;
56013;SDS011;41893;55.868;37.632;2022-09-13T13:46:46;9.77;;;2.60;;
56013;SDS011;41893;55.868;37.632;2022-09-13T13:59:45;5.00;;;2.05;;
56013;SDS011;41893;55.868;37.632;2022-09-13T14:02:14;17.00;;;2.90;;
56013;SDS011;41893;55.868;37.632;2022-09-13T14:04:57;3.60;;;2.40;;
56013;SDS011;41893;55.868;37.632;2022-09-13T14:07:42;5.47;;;2.15;;
56013;SDS011;41893;55.868;37.632;2022-09-13T14:13:07;8.00;;;3.15;;
56013;SDS011;41893;55.868;37.632;2022-09-13T14:18:33;19.48;;;2.75;;
56013;SDS011;41893;55.868;37.632;2022-09-13T14:21:25;3.30;;;2.35;;
56013;SDS011;41893;55.868;37.632;2022-09-13T14:26:48;9.70;;;2.53;;
56013;SDS011;41893;55.868;37.632;2022-09-13T14:29:18;5.00;;;2.80;;
56013;SDS011;41893;55.868;37.632;2022-09-13T14:31:49;7.35;;;2.40;;
56013;SDS011;41893;55.868;37.632;2022-09-13T14:36:55;3.17;;;2.88;;
56013;SDS011;41893;55.868;37.632;2022-09-13T14:39:22;14.07;;;2.72;;
56013;SDS011;41893;55.868;37.632;2022-09-13T14:41:48;17.50;;;3.30;;
56013;SDS011;41893;55.868;37.632;2022-09-13T14:44:24;10.82;;;2.80;;
56013;SDS011;41893;55.868;37.632;2022-09-13T14:46:56;20.30;;;3.63;;
56013;SDS011;41893;55.868;37.632;2022-09-13T14:49:31;7.78;;;3.55;;
56013;SDS011;41893;55.868;37.632;2022-09-13T14:52:05;13.90;;;4.95;;
56013;SDS011;41893;55.868;37.632;2022-09-13T14:54:44;10.07;;;3.85;;
56013;SDS011;41893;55.868;37.632;2022-09-13T14:57:31;7.47;;;3.60;;
56013;SDS011;41893;55.868;37.632;2022-09-13T15:00:14;11.50;;;4.53;;
56013;SDS011;41893;55.868;37.632;2022-09-13T15:02:43;7.20;;;4.47;;
56013;SDS011;41893;55.868;37.632;2022-09-13T15:05:15;10.13;;;5.93;;
56013;SDS011;41893;55.868;37.632;2022-09-13T15:07:43;9.10;;;4.50;;
56013;SDS011;41893;55.868;37.632;2022-09-13T15:10:30;13.65;;;6.05;;
56013;SDS011;41893;55.868;37.632;2022-09-13T15:13:11;14.48;;;4.78;;
56013;SDS011;41893;55.868;37.632;2022-09-13T15:15:40;7.72;;;5.50;;
56013;SDS011;41893;55.868;37.632;2022-09-13T15:23:30;17.38;;;6.68;;
56013;SDS011;41893;55.868;37.632;2022-09-13T15:26:11;11.45;;;5.90;;
56013;SDS011;41893;55.868;37.632;2022-09-13T15:31:19;9.70;;;5.75;;
56013;SDS011;41893;55.868;37.632;2022-09-13T15:33:46;17.50;;;5.63;;
56013;SDS011;41893;55.868;37.632;2022-09-13T15:36:13;19.88;;;5.55;;
56013;SDS011;41893;55.868;37.632;2022-09-13T15:41:38;12.90;;;3.30;;
56013;SDS011;41893;55.868;37.632;2022-09-13T15:44:06;7.97;;;3.92;;
56013;SDS011;41893;55.868;37.632;2022-09-13T15:46:36;9.85;;;3.35;;
56013;SDS011;41893;55.868;37.632;2022-09-13T15:49:12;15.07;;;3.92;;
56013;SDS011;41893;55.868;37.632;2022-09-13T15:51:42;4.18;;;3.83;;
56013;SDS011;41893;55.868;37.632;2022-09-13T15:54:12;9.35;;;4.30;;
56013;SDS011;41893;55.868;37.632;2022-09-13T15:56:41;17.42;;;5.40;;
56013;SDS011;41893;55.868;37.632;2022-09-13T15:59:12;15.82;;;4.78;;
56013;SDS011;41893;55.868;37.632;2022-09-13T16:01:41;11.13;;;4.45;;
56013;SDS011;41893;55.868;37.632;2022-09-13T16:04:24;11.40;;;4.00;;
56013;SDS011;41893;55.868;37.632;2022-09-13T16:06:53;7.90;;;4.40;;
56013;SDS011;41893;55.868;37.632;2022-09-13T16:09:20;9.23;;;3.83;;
56013;SDS011;41893;55.868;37.632;2022-09-13T16:11:49;13.52;;;3.95;;
56013;SDS011;41893;55.868;37.632;2022-09-13T16:14:16;14.63;;;3.80;;
56013;SDS011;41893;55.868;37.632;2022-09-13T16:16:43;16.23;;;3.33;;
56013;SDS011;41893;55.868;37.632;2022-09-13T16:19:14;12.63;;;4.13;;
56013;SDS011;41893;55.868;37.632;2022-09-13T16:21:43;9.45;;;3.80;;
56013;SDS011;41893;55.868;37.632;2022-09-13T16:24:09;22.65;;;4.32;;
56013;SDS011;41893;55.868;37.632;2022-09-13T16:26:34;24.05;;;5.85;;
56013;SDS011;41893;55.868;37.632;2022-09-13T16:29:00;5.05;;;4.38;;
56013;SDS011;41893;55.868;37.632;2022-09-13T16:31:26;16.38;;;4.03;;
56013;SDS011;41893;55.868;37.632;2022-09-13T16:33:52;17.75;;;4.68;;
56013;SDS011;41893;55.868;37.632;2022-09-13T16:36:18;7.63;;;4.60;;
56013;SDS011;41893;55.868;37.632;2022-09-13T16:38:44;11.18;;;4.38;;
56013;SDS011;41893;55.868;37.632;2022-09-13T16:41:10;18.90;;;8.13;;
56013;SDS011;41893;55.868;37.632;2022-09-13T16:43:36;9.60;;;4.90;;
56013;SDS011;41893;55.868;37.632;2022-09-13T16:46:05;4.32;;;3.90;;
56013;SDS011;41893;55.868;37.632;2022-09-13T16:48:33;6.18;;;4.50;;
56013;SDS011;41893;55.868;37.632;2022-09-13T16:51:06;11.95;;;4.55;;
56013;SDS011;41893;55.868;37.632;2022-09-13T16:53:34;4.85;;;4.32;;
56013;SDS011;41893;55.868;37.632;2022-09-13T16:56:06;8.23;;;5.10;;
56013;SDS011;41893;55.868;37.632;2022-09-13T16:58:36;5.13;;;4.68;;
56013;SDS011;41893;55.868;37.632;2022-09-13T17:01:03;10.45;;;5.28;;
56013;SDS011;41893;55.868;37.632;2022-09-13T17:03:30;7.28;;;5.40;;
56013;SDS011;41893;55.868;37.632;2022-09-13T17:05:59;14.48;;;5.00;;
56013;SDS011;41893;55.868;37.632;2022-09-13T17:08:26;19.02;;;4.90;;
56013;SDS011;41893;55.868;37.632;2022-09-13T17:10:53;6.88;;;3.95;;
56013;SDS011;41893;55.868;37.632;2022-09-13T17:13:19;5.32;;;4.30;;
56013;SDS011;41893;55.868;37.632;2022-09-13T17:15:45;5.85;;;4.38;;
56013;SDS011;41893;55.868;37.632;2022-09-13T17:18:11;7.40;;;4.35;;
56013;SDS011;41893;55.868;37.632;2022-09-13T17:20:42;17.83;;;4.38;;
56013;SDS011;41893;55.868;37.632;2022-09-13T17:23:09;6.47;;;4.43;;
56013;SDS011;41893;55.868;37.632;2022-09-13T17:25:35;6.60;;;5.15;;
56013;SDS011;41893;55.868;37.632;2022-09-13T17:28:01;10.18;;;3.88;;
56013;SDS011;41893;55.868;37.632;2022-09-13T17:30:27;4.63;;;3.60;;
56013;SDS011;41893;55.868;37.632;2022-09-13T17:32:53;4.82;;;3.63;;
56013;SDS011;41893;55.868;37.632;2022-09-13T17:35:19;13.18;;;3.45;;
56013;SDS011;41893;55.868;37.632;2022-09-13T17:37:47;11.63;;;4.40;;
56013;SDS011;41893;55.868;37.632;2022-09-13T17:40:13;5.43;;;4.18;;
56013;SDS011;41893;55.868;37.632;2022-09-13T17:42:39;11.07;;;4.45;;
56013;SDS011;41893;55.868;37.632;2022-09-13T17:45:06;8.57;;;4.20;;
56013;SDS011;41893;55.868;37.632;2022-09-13T17:47:33;6.55;;;4.10;;
56013;SDS011;41893;55.868;37.632;2022-09-13T17:49:59;6.53;;;4.05;;
56013;SDS011;41893;55.868;37.632;2022-09-13T17:52:26;14.90;;;4.90;;
56013;SDS011;41893;55.868;37.632;2022-09-13T17:54:53;6.97;;;5.28;;
56013;SDS011;41893;55.868;37.632;2022-09-13T17:57:18;16.90;;;5.60;;
56013;SDS011;41893;55.868;37.632;2022-09-13T17:59:45;7.72;;;4.47;;
56013;SDS011;41893;55.868;37.632;2022-09-13T18:02:11;7.13;;;4.20;;
56013;SDS011;41893;55.868;37.632;2022-09-13T18:04:37;11.20;;;4.65;;
56013;SDS011;41893;55.868;37.632;2022-09-13T18:07:03;12.10;;;4.90;;
56013;SDS011;41893;55.868;37.632;2022-09-13T18:09:30;25.98;;;4.82;;
56013;SDS011;41893;55.868;37.632;2022-09-13T18:11:56;7.32;;;4.18;;
56013;SDS011;41893;55.868;37.632;2022-09-13T18:14:22;4.65;;;4.35;;
56013;SDS011;41893;55.868;37.632;2022-09-13T18:16:51;6.93;;;4.40;;
56013;SDS011;41893;55.868;37.632;2022-09-13T18:19:20;5.00;;;4.53;;
56013;SDS011;41893;55.868;37.632;2022-09-13T18:21:47;6.22;;;4.63;;
56013;SDS011;41893;55.868;37.632;2022-09-13T18:24:13;4.40;;;4.00;;
56013;SDS011;41893;55.868;37.632;2022-09-13T18:26:39;8.18;;;5.82;;